sensor_id;sensor_type;location;lat;lon;timestamp;P1;durP1;ratioP1;P2;durP2;ratioP2
5555;SDS011;2801;50.972;7.856;2022-08-21T00:01:49;16.50;;;10.80;;
5555;SDS011;2801;50.972;7.856;2022-08-21T00:04:16;24.42;;;14.13;;
5555;SDS011;2801;50.972;7.856;2022-08-21T00:06:47;20.92;;;12.88;;
5555;SDS011;2801;50.972;7.856;2022-08-21T00:09:17;19.33;;;11.40;;
5555;SDS011;2801;50.972;7.856;2022-08-21T00:11:46;21.73;;;12.73;;
5555;SDS011;2801;50.972;7.856;2022-08-21T00:14:14;19.45;;;11.82;;
5555;SDS011;2801;50.972;7.856;2022-08-21T00:16:42;21.63;;;12.40;;
5555;SDS011;2801;50.972;7.856;2022-08-21T00:19:09;18.60;;;12.45;;
5555;SDS011;2801;50.972;7.856;2022-08-21T00:21:36;19.33;;;11.45;;
5555;SDS011;2801;50.972;7.856;2022-08-21T00:24:03;17.63;;;11.48;;
5555;SDS011;2801;50.972;7.856;2022-08-21T00:26:32;18.38;;;11.10;;
5555;SDS011;2801;50.972;7.856;2022-08-21T00:29:01;23.67;;;12.77;;
5555;SDS011;2801;50.972;7.856;2022-08-21T00:31:29;17.20;;;12.13;;
5555;SDS011;2801;50.972;7.856;2022-08-21T00:33:56;17.98;;;11.52;;
5555;SDS011;2801;50.972;7.856;2022-08-21T00:36:26;18.73;;;10.38;;
5555;SDS011;2801;50.972;7.856;2022-08-21T00:38:54;15.77;;;9.85;;
5555;SDS011;2801;50.972;7.856;2022-08-21T00:41:22;17.52;;;10.18;;
5555;SDS011;2801;50.972;7.856;2022-08-21T00:44:04;17.63;;;10.45;;
5555;SDS011;2801;50.972;7.856;2022-08-21T00:46:33;15.65;;;9.68;;
5555;SDS011;2801;50.972;7.856;2022-08-21T00:49:01;13.82;;;9.48;;
5555;SDS011;2801;50.972;7.856;2022-08-21T00:54:08;16.40;;;10.55;;
5555;SDS011;2801;50.972;7.856;2022-08-21T00:56:43;17.23;;;10.27;;
5555;SDS011;2801;50.972;7.856;2022-08-21T00:59:14;19.35;;;10.18;;
5555;SDS011;2801;50.972;7.856;2022-08-21T01:01:45;14.52;;;9.90;;
5555;SDS011;2801;50.972;7.856;2022-08-21T01:04:13;15.98;;;10.15;;
5555;SDS011;2801;50.972;7.856;2022-08-21T01:06:42;17.13;;;10.52;;
5555;SDS011;2801;50.972;7.856;2022-08-21T01:09:09;17.15;;;10.40;;
5555;SDS011;2801;50.972;7.856;2022-08-21T01:11:37;20.17;;;10.85;;
5555;SDS011;2801;50.972;7.856;2022-08-21T01:14:05;19.48;;;11.00;;
5555;SDS011;2801;50.972;7.856;2022-08-21T01:16:32;19.17;;;11.10;;
5555;SDS011;2801;50.972;7.856;2022-08-21T01:19:00;19.35;;;10.35;;
5555;SDS011;2801;50.972;7.856;2022-08-21T01:21:28;20.35;;;12.23;;
5555;SDS011;2801;50.972;7.856;2022-08-21T01:23:56;20.25;;;11.65;;
5555;SDS011;2801;50.972;7.856;2022-08-21T01:26:25;22.55;;;11.23;;
5555;SDS011;2801;50.972;7.856;2022-08-21T01:31:58;21.00;;;11.95;;
5555;SDS011;2801;50.972;7.856;2022-08-21T01:34:35;22.30;;;11.48;;
5555;SDS011;2801;50.972;7.856;2022-08-21T01:37:05;20.52;;;11.80;;
5555;SDS011;2801;50.972;7.856;2022-08-21T01:39:33;23.02;;;12.60;;
5555;SDS011;2801;50.972;7.856;2022-08-21T01:42:01;21.48;;;13.18;;
5555;SDS011;2801;50.972;7.856;2022-08-21T01:44:30;23.25;;;11.90;;
5555;SDS011;2801;50.972;7.856;2022-08-21T01:46:59;23.15;;;11.95;;
5555;SDS011;2801;50.972;7.856;2022-08-21T01:49:30;21.35;;;11.27;;
5555;SDS011;2801;50.972;7.856;2022-08-21T01:51:57;19.33;;;11.55;;
5555;SDS011;2801;50.972;7.856;2022-08-21T01:54:23;19.50;;;11.00;;
5555;SDS011;2801;50.972;7.856;2022-08-21T01:56:51;22.17;;;11.23;;
5555;SDS011;2801;50.972;7.856;2022-08-21T01:59:20;18.95;;;10.57;;
5555;SDS011;2801;50.972;7.856;2022-08-21T02:01:50;16.75;;;9.93;;
5555;SDS011;2801;50.972;7.856;2022-08-21T02:04:17;16.08;;;10.63;;
5555;SDS011;2801;50.972;7.856;2022-08-21T02:06:44;17.02;;;10.63;;
5555;SDS011;2801;50.972;7.856;2022-08-21T02:09:11;15.52;;;10.20;;
5555;SDS011;2801;50.972;7.856;2022-08-21T02:11:40;20.27;;;10.48;;
5555;SDS011;2801;50.972;7.856;2022-08-21T02:14:09;12.45;;;8.93;;
5555;SDS011;2801;50.972;7.856;2022-08-21T02:16:39;13.77;;;9.90;;
5555;SDS011;2801;50.972;7.856;2022-08-21T02:19:08;15.23;;;9.95;;
5555;SDS011;2801;50.972;7.856;2022-08-21T02:21:36;19.33;;;10.55;;
5555;SDS011;2801;50.972;7.856;2022-08-21T02:24:03;14.55;;;10.00;;
5555;SDS011;2801;50.972;7.856;2022-08-21T02:26:31;18.80;;;10.52;;
5555;SDS011;2801;50.972;7.856;2022-08-21T02:28:58;17.13;;;10.35;;
5555;SDS011;2801;50.972;7.856;2022-08-21T02:31:26;16.88;;;9.88;;
5555;SDS011;2801;50.972;7.856;2022-08-21T02:33:53;13.43;;;9.18;;
5555;SDS011;2801;50.972;7.856;2022-08-21T02:36:20;16.35;;;10.13;;
5555;SDS011;2801;50.972;7.856;2022-08-21T02:38:47;17.80;;;10.52;;
5555;SDS011;2801;50.972;7.856;2022-08-21T02:41:15;15.32;;;10.25;;
5555;SDS011;2801;50.972;7.856;2022-08-21T02:43:44;19.20;;;10.75;;
5555;SDS011;2801;50.972;7.856;2022-08-21T02:46:12;15.75;;;10.10;;
5555;SDS011;2801;50.972;7.856;2022-08-21T02:48:43;19.73;;;10.80;;
5555;SDS011;2801;50.972;7.856;2022-08-21T02:51:12;17.75;;;11.55;;
5555;SDS011;2801;50.972;7.856;2022-08-21T02:53:44;18.23;;;10.80;;
5555;SDS011;2801;50.972;7.856;2022-08-21T02:56:15;18.40;;;10.73;;
5555;SDS011;2801;50.972;7.856;2022-08-21T02:58:49;15.85;;;9.77;;
5555;SDS011;2801;50.972;7.856;2022-08-21T03:01:19;14.93;;;9.13;;
5555;SDS011;2801;50.972;7.856;2022-08-21T03:03:46;13.68;;;8.75;;
5555;SDS011;2801;50.972;7.856;2022-08-21T03:06:17;15.35;;;8.63;;
5555;SDS011;2801;50.972;7.856;2022-08-21T03:08:47;12.43;;;8.65;;
5555;SDS011;2801;50.972;7.856;2022-08-21T03:11:15;13.27;;;8.55;;
5555;SDS011;2801;50.972;7.856;2022-08-21T03:13:42;18.88;;;9.35;;
5555;SDS011;2801;50.972;7.856;2022-08-21T03:16:09;16.23;;;9.52;;
5555;SDS011;2801;50.972;7.856;2022-08-21T03:18:36;15.93;;;10.43;;
5555;SDS011;2801;50.972;7.856;2022-08-21T03:21:05;20.20;;;10.45;;
5555;SDS011;2801;50.972;7.856;2022-08-21T03:23:33;21.17;;;10.68;;
5555;SDS011;2801;50.972;7.856;2022-08-21T03:26:00;19.90;;;10.95;;
5555;SDS011;2801;50.972;7.856;2022-08-21T03:28:27;18.52;;;11.15;;
5555;SDS011;2801;50.972;7.856;2022-08-21T03:30:54;19.58;;;10.48;;
5555;SDS011;2801;50.972;7.856;2022-08-21T03:33:21;18.88;;;9.98;;
5555;SDS011;2801;50.972;7.856;2022-08-21T03:35:52;15.70;;;9.77;;
5555;SDS011;2801;50.972;7.856;2022-08-21T03:38:32;14.00;;;9.15;;
5555;SDS011;2801;50.972;7.856;2022-08-21T03:41:01;15.57;;;9.02;;
5555;SDS011;2801;50.972;7.856;2022-08-21T03:43:29;14.52;;;9.43;;
5555;SDS011;2801;50.972;7.856;2022-08-21T03:45:58;16.02;;;9.90;;
5555;SDS011;2801;50.972;7.856;2022-08-21T03:48:28;17.30;;;9.10;;
5555;SDS011;2801;50.972;7.856;2022-08-21T03:50:55;14.80;;;8.77;;
5555;SDS011;2801;50.972;7.856;2022-08-21T03:53:22;16.20;;;9.57;;
5555;SDS011;2801;50.972;7.856;2022-08-21T03:55:50;15.23;;;9.38;;
5555;SDS011;2801;50.972;7.856;2022-08-21T03:58:20;17.30;;;9.57;;
5555;SDS011;2801;50.972;7.856;2022-08-21T04:00:54;12.80;;;9.10;;
5555;SDS011;2801;50.972;7.856;2022-08-21T04:03:25;13.45;;;8.57;;
5555;SDS011;2801;50.972;7.856;2022-08-21T04:05:54;14.52;;;8.60;;
5555;SDS011;2801;50.972;7.856;2022-08-21T04:08:21;14.38;;;8.60;;
5555;SDS011;2801;50.972;7.856;2022-08-21T04:10:49;12.40;;;8.20;;
5555;SDS011;2801;50.972;7.856;2022-08-21T04:13:19;13.00;;;8.50;;
5555;SDS011;2801;50.972;7.856;2022-08-21T04:15:47;12.65;;;8.70;;
5555;SDS011;2801;50.972;7.856;2022-08-21T04:18:15;14.52;;;9.50;;
5555;SDS011;2801;50.972;7.856;2022-08-21T04:20:43;13.18;;;9.30;;
5555;SDS011;2801;50.972;7.856;2022-08-21T04:23:16;16.77;;;9.38;;
5555;SDS011;2801;50.972;7.856;2022-08-21T04:25:49;14.15;;;9.32;;
5555;SDS011;2801;50.972;7.856;2022-08-21T04:28:19;13.27;;;8.65;;
5555;SDS011;2801;50.972;7.856;2022-08-21T04:30:48;16.35;;;9.30;;
5555;SDS011;2801;50.972;7.856;2022-08-21T04:33:18;11.00;;;8.23;;
5555;SDS011;2801;50.972;7.856;2022-08-21T04:35:47;14.43;;;8.70;;
5555;SDS011;2801;50.972;7.856;2022-08-21T04:38:15;14.40;;;9.32;;
5555;SDS011;2801;50.972;7.856;2022-08-21T04:40:42;15.82;;;8.93;;
5555;SDS011;2801;50.972;7.856;2022-08-21T04:43:10;12.77;;;8.73;;
5555;SDS011;2801;50.972;7.856;2022-08-21T04:45:40;16.15;;;8.95;;
5555;SDS011;2801;50.972;7.856;2022-08-21T04:48:11;16.77;;;9.32;;
5555;SDS011;2801;50.972;7.856;2022-08-21T04:56:13;16.38;;;10.25;;
5555;SDS011;2801;50.972;7.856;2022-08-21T04:58:47;14.40;;;9.40;;
5555;SDS011;2801;50.972;7.856;2022-08-21T05:01:17;16.25;;;9.88;;
5555;SDS011;2801;50.972;7.856;2022-08-21T05:03:48;13.73;;;9.30;;
5555;SDS011;2801;50.972;7.856;2022-08-21T05:06:22;12.45;;;8.43;;
5555;SDS011;2801;50.972;7.856;2022-08-21T05:08:51;14.40;;;9.35;;
5555;SDS011;2801;50.972;7.856;2022-08-21T05:11:27;14.43;;;9.18;;
5555;SDS011;2801;50.972;7.856;2022-08-21T05:13:57;14.60;;;9.48;;
5555;SDS011;2801;50.972;7.856;2022-08-21T05:16:24;14.82;;;9.43;;
5555;SDS011;2801;50.972;7.856;2022-08-21T05:19:03;13.23;;;8.73;;
5555;SDS011;2801;50.972;7.856;2022-08-21T05:21:31;14.55;;;9.10;;
5555;SDS011;2801;50.972;7.856;2022-08-21T05:24:04;16.20;;;9.77;;
5555;SDS011;2801;50.972;7.856;2022-08-21T05:26:31;14.15;;;9.88;;
5555;SDS011;2801;50.972;7.856;2022-08-21T05:29:10;17.73;;;9.48;;
5555;SDS011;2801;50.972;7.856;2022-08-21T05:31:38;16.98;;;10.23;;
5555;SDS011;2801;50.972;7.856;2022-08-21T05:34:05;16.85;;;10.65;;
5555;SDS011;2801;50.972;7.856;2022-08-21T05:36:32;18.10;;;10.52;;
5555;SDS011;2801;50.972;7.856;2022-08-21T05:38:59;15.85;;;10.93;;
5555;SDS011;2801;50.972;7.856;2022-08-21T05:41:26;14.98;;;9.18;;
5555;SDS011;2801;50.972;7.856;2022-08-21T05:43:53;12.20;;;9.05;;
5555;SDS011;2801;50.972;7.856;2022-08-21T05:46:20;11.63;;;8.27;;
5555;SDS011;2801;50.972;7.856;2022-08-21T05:48:47;11.40;;;8.32;;
5555;SDS011;2801;50.972;7.856;2022-08-21T05:51:15;13.05;;;8.70;;
5555;SDS011;2801;50.972;7.856;2022-08-21T05:53:42;14.45;;;8.25;;
5555;SDS011;2801;50.972;7.856;2022-08-21T05:56:11;11.30;;;8.68;;
5555;SDS011;2801;50.972;7.856;2022-08-21T05:58:39;10.40;;;8.48;;
5555;SDS011;2801;50.972;7.856;2022-08-21T06:01:06;11.57;;;7.82;;
5555;SDS011;2801;50.972;7.856;2022-08-21T06:03:36;9.98;;;7.50;;
5555;SDS011;2801;50.972;7.856;2022-08-21T06:06:06;12.05;;;8.60;;
5555;SDS011;2801;50.972;7.856;2022-08-21T06:08:33;12.52;;;9.18;;
5555;SDS011;2801;50.972;7.856;2022-08-21T06:11:01;11.88;;;8.73;;
5555;SDS011;2801;50.972;7.856;2022-08-21T06:13:30;12.10;;;9.15;;
5555;SDS011;2801;50.972;7.856;2022-08-21T06:16:11;15.45;;;9.20;;
5555;SDS011;2801;50.972;7.856;2022-08-21T06:18:42;12.60;;;8.75;;
5555;SDS011;2801;50.972;7.856;2022-08-21T06:21:11;11.57;;;7.93;;
5555;SDS011;2801;50.972;7.856;2022-08-21T06:23:39;13.35;;;8.68;;
5555;SDS011;2801;50.972;7.856;2022-08-21T06:26:09;10.85;;;8.23;;
5555;SDS011;2801;50.972;7.856;2022-08-21T06:28:38;21.27;;;8.07;;
5555;SDS011;2801;50.972;7.856;2022-08-21T06:31:13;15.32;;;9.18;;
5555;SDS011;2801;50.972;7.856;2022-08-21T06:33:44;12.80;;;8.75;;
5555;SDS011;2801;50.972;7.856;2022-08-21T06:36:12;13.75;;;8.95;;
5555;SDS011;2801;50.972;7.856;2022-08-21T06:38:39;11.80;;;8.95;;
5555;SDS011;2801;50.972;7.856;2022-08-21T06:41:15;12.07;;;8.73;;
5555;SDS011;2801;50.972;7.856;2022-08-21T06:43:42;12.73;;;8.60;;
5555;SDS011;2801;50.972;7.856;2022-08-21T06:46:10;12.95;;;9.10;;
5555;SDS011;2801;50.972;7.856;2022-08-21T06:48:36;10.18;;;8.65;;
5555;SDS011;2801;50.972;7.856;2022-08-21T06:51:03;13.77;;;9.07;;
5555;SDS011;2801;50.972;7.856;2022-08-21T06:53:31;13.98;;;9.15;;
5555;SDS011;2801;50.972;7.856;2022-08-21T06:55:59;12.55;;;9.10;;
5555;SDS011;2801;50.972;7.856;2022-08-21T06:58:25;14.35;;;8.98;;
5555;SDS011;2801;50.972;7.856;2022-08-21T07:00:52;13.27;;;9.40;;
5555;SDS011;2801;50.972;7.856;2022-08-21T07:03:27;12.02;;;9.07;;
5555;SDS011;2801;50.972;7.856;2022-08-21T07:05:58;13.23;;;8.80;;
5555;SDS011;2801;50.972;7.856;2022-08-21T07:08:26;11.43;;;9.10;;
5555;SDS011;2801;50.972;7.856;2022-08-21T07:10:55;12.73;;;8.10;;
5555;SDS011;2801;50.972;7.856;2022-08-21T07:13:26;12.98;;;8.98;;
5555;SDS011;2801;50.972;7.856;2022-08-21T07:15:53;11.38;;;8.82;;
5555;SDS011;2801;50.972;7.856;2022-08-21T07:18:26;12.25;;;8.77;;
5555;SDS011;2801;50.972;7.856;2022-08-21T07:20:54;12.15;;;8.18;;
5555;SDS011;2801;50.972;7.856;2022-08-21T07:25:52;10.98;;;8.23;;
5555;SDS011;2801;50.972;7.856;2022-08-21T07:28:20;12.32;;;8.65;;
5555;SDS011;2801;50.972;7.856;2022-08-21T07:30:50;12.63;;;9.02;;
5555;SDS011;2801;50.972;7.856;2022-08-21T07:33:21;13.25;;;8.23;;
5555;SDS011;2801;50.972;7.856;2022-08-21T07:35:48;11.88;;;8.57;;
5555;SDS011;2801;50.972;7.856;2022-08-21T07:38:15;11.13;;;7.80;;
5555;SDS011;2801;50.972;7.856;2022-08-21T07:40:44;10.73;;;8.30;;
5555;SDS011;2801;50.972;7.856;2022-08-21T07:43:13;10.55;;;8.23;;
5555;SDS011;2801;50.972;7.856;2022-08-21T07:45:42;13.70;;;7.53;;
5555;SDS011;2801;50.972;7.856;2022-08-21T07:48:10;15.32;;;8.30;;
5555;SDS011;2801;50.972;7.856;2022-08-21T07:50:38;12.55;;;7.68;;
5555;SDS011;2801;50.972;7.856;2022-08-21T07:53:06;15.93;;;7.43;;
5555;SDS011;2801;50.972;7.856;2022-08-21T07:55:33;12.85;;;7.10;;
5555;SDS011;2801;50.972;7.856;2022-08-21T07:58:00;11.30;;;7.13;;
5555;SDS011;2801;50.972;7.856;2022-08-21T08:00:28;10.68;;;7.00;;
5555;SDS011;2801;50.972;7.856;2022-08-21T08:02:55;10.32;;;7.47;;
5555;SDS011;2801;50.972;7.856;2022-08-21T08:05:25;9.73;;;6.63;;
5555;SDS011;2801;50.972;7.856;2022-08-21T08:07:56;12.13;;;6.80;;
5555;SDS011;2801;50.972;7.856;2022-08-21T08:10:24;10.40;;;6.00;;
5555;SDS011;2801;50.972;7.856;2022-08-21T08:12:52;9.80;;;5.00;;
5555;SDS011;2801;50.972;7.856;2022-08-21T08:15:22;10.48;;;4.43;;
5555;SDS011;2801;50.972;7.856;2022-08-21T08:17:52;9.80;;;3.88;;
5555;SDS011;2801;50.972;7.856;2022-08-21T08:20:21;6.47;;;3.17;;
5555;SDS011;2801;50.972;7.856;2022-08-21T08:22:51;7.10;;;2.45;;
5555;SDS011;2801;50.972;7.856;2022-08-21T08:25:19;8.35;;;2.58;;
5555;SDS011;2801;50.972;7.856;2022-08-21T08:27:49;8.48;;;3.17;;
5555;SDS011;2801;50.972;7.856;2022-08-21T08:30:16;4.75;;;2.33;;
5555;SDS011;2801;50.972;7.856;2022-08-21T08:32:46;7.35;;;2.88;;
5555;SDS011;2801;50.972;7.856;2022-08-21T08:35:13;4.30;;;1.70;;
5555;SDS011;2801;50.972;7.856;2022-08-21T08:37:41;9.60;;;3.13;;
5555;SDS011;2801;50.972;7.856;2022-08-21T08:43:44;8.40;;;4.20;;
5555;SDS011;2801;50.972;7.856;2022-08-21T08:46:23;8.05;;;3.50;;
5555;SDS011;2801;50.972;7.856;2022-08-21T08:57:28;5.72;;;3.47;;
5555;SDS011;2801;50.972;7.856;2022-08-21T08:59:58;9.80;;;4.05;;
5555;SDS011;2801;50.972;7.856;2022-08-21T09:02:33;7.88;;;3.53;;
5555;SDS011;2801;50.972;7.856;2022-08-21T09:05:00;6.75;;;3.83;;
5555;SDS011;2801;50.972;7.856;2022-08-21T09:07:43;5.90;;;3.83;;
5555;SDS011;2801;50.972;7.856;2022-08-21T09:10:34;7.78;;;3.10;;
5555;SDS011;2801;50.972;7.856;2022-08-21T09:13:24;8.02;;;3.55;;
5555;SDS011;2801;50.972;7.856;2022-08-21T09:25:23;4.70;;;2.83;;
5555;SDS011;2801;50.972;7.856;2022-08-21T09:27:58;5.70;;;3.08;;
5555;SDS011;2801;50.972;7.856;2022-08-21T09:30:27;5.13;;;2.95;;
5555;SDS011;2801;50.972;7.856;2022-08-21T09:32:58;5.07;;;2.50;;
5555;SDS011;2801;50.972;7.856;2022-08-21T09:35:26;4.85;;;2.50;;
5555;SDS011;2801;50.972;7.856;2022-08-21T09:37:57;6.25;;;2.50;;
5555;SDS011;2801;50.972;7.856;2022-08-21T09:40:35;7.20;;;2.70;;
5555;SDS011;2801;50.972;7.856;2022-08-21T09:43:16;8.25;;;3.03;;
5555;SDS011;2801;50.972;7.856;2022-08-21T09:45:47;8.68;;;3.00;;
5555;SDS011;2801;50.972;7.856;2022-08-21T09:48:22;5.93;;;2.60;;
5555;SDS011;2801;50.972;7.856;2022-08-21T09:50:52;8.13;;;3.40;;
5555;SDS011;2801;50.972;7.856;2022-08-21T09:53:30;6.43;;;3.10;;
5555;SDS011;2801;50.972;7.856;2022-08-21T09:56:14;9.18;;;3.20;;
5555;SDS011;2801;50.972;7.856;2022-08-21T09:59:16;7.50;;;2.50;;
5555;SDS011;2801;50.972;7.856;2022-08-21T10:02:36;7.00;;;2.80;;
5555;SDS011;2801;50.972;7.856;2022-08-21T10:05:07;6.13;;;2.30;;
5555;SDS011;2801;50.972;7.856;2022-08-21T10:07:45;7.43;;;2.92;;
5555;SDS011;2801;50.972;7.856;2022-08-21T10:21:27;7.32;;;2.17;;
5555;SDS011;2801;50.972;7.856;2022-08-21T10:29:59;7.65;;;2.20;;
5555;SDS011;2801;50.972;7.856;2022-08-21T10:35:28;5.90;;;2.38;;
5555;SDS011;2801;50.972;7.856;2022-08-21T10:44:44;5.20;;;2.00;;
5555;SDS011;2801;50.972;7.856;2022-08-21T10:47:41;5.13;;;2.20;;
5555;SDS011;2801;50.972;7.856;2022-08-21T10:56:17;5.35;;;2.10;;
5555;SDS011;2801;50.972;7.856;2022-08-21T10:59:04;5.55;;;1.90;;
5555;SDS011;2801;50.972;7.856;2022-08-21T11:02:08;7.47;;;2.20;;
5555;SDS011;2801;50.972;7.856;2022-08-21T11:04:59;5.60;;;2.20;;
5555;SDS011;2801;50.972;7.856;2022-08-21T11:07:42;4.18;;;1.98;;
5555;SDS011;2801;50.972;7.856;2022-08-21T11:10:28;5.38;;;2.00;;
5555;SDS011;2801;50.972;7.856;2022-08-21T11:13:30;4.18;;;2.38;;
5555;SDS011;2801;50.972;7.856;2022-08-21T11:16:18;4.78;;;2.00;;
5555;SDS011;2801;50.972;7.856;2022-08-21T11:22:03;5.40;;;2.00;;
5555;SDS011;2801;50.972;7.856;2022-08-21T11:27:45;4.72;;;1.88;;
5555;SDS011;2801;50.972;7.856;2022-08-21T11:30:29;6.68;;;2.35;;
5555;SDS011;2801;50.972;7.856;2022-08-21T11:36:31;5.45;;;2.13;;
5555;SDS011;2801;50.972;7.856;2022-08-21T11:42:06;5.60;;;2.00;;
5555;SDS011;2801;50.972;7.856;2022-08-21T11:47:58;8.57;;;2.20;;
5555;SDS011;2801;50.972;7.856;2022-08-21T11:51:10;5.18;;;2.00;;
5555;SDS011;2801;50.972;7.856;2022-08-21T11:53:46;5.82;;;2.20;;
5555;SDS011;2801;50.972;7.856;2022-08-21T11:56:34;5.65;;;2.20;;
5555;SDS011;2801;50.972;7.856;2022-08-21T11:59:20;3.65;;;1.73;;
5555;SDS011;2801;50.972;7.856;2022-08-21T12:02:12;6.20;;;1.50;;
5555;SDS011;2801;50.972;7.856;2022-08-21T12:04:48;3.55;;;1.60;;
5555;SDS011;2801;50.972;7.856;2022-08-21T12:07:35;5.30;;;1.65;;
5555;SDS011;2801;50.972;7.856;2022-08-21T12:10:12;3.35;;;1.80;;
5555;SDS011;2801;50.972;7.856;2022-08-21T12:12:44;5.38;;;1.70;;
5555;SDS011;2801;50.972;7.856;2022-08-21T12:15:16;2.60;;;1.40;;
5555;SDS011;2801;50.972;7.856;2022-08-21T12:17:54;4.78;;;1.77;;
5555;SDS011;2801;50.972;7.856;2022-08-21T12:23:04;4.47;;;1.88;;
5555;SDS011;2801;50.972;7.856;2022-08-21T12:28:49;2.63;;;1.77;;
5555;SDS011;2801;50.972;7.856;2022-08-21T12:31:24;5.38;;;1.55;;
5555;SDS011;2801;50.972;7.856;2022-08-21T12:34:00;9.10;;;1.77;;
5555;SDS011;2801;50.972;7.856;2022-08-21T12:37:09;3.58;;;1.58;;
5555;SDS011;2801;50.972;7.856;2022-08-21T12:40:03;2.92;;;1.38;;
5555;SDS011;2801;50.972;7.856;2022-08-21T12:42:39;12.43;;;1.60;;
5555;SDS011;2801;50.972;7.856;2022-08-21T12:45:34;2.58;;;1.23;;
5555;SDS011;2801;50.972;7.856;2022-08-21T12:50:54;1.83;;;1.20;;
5555;SDS011;2801;50.972;7.856;2022-08-21T12:53:47;2.33;;;1.25;;
5555;SDS011;2801;50.972;7.856;2022-08-21T12:56:23;1.65;;;1.05;;
5555;SDS011;2801;50.972;7.856;2022-08-21T12:58:54;2.83;;;1.27;;
5555;SDS011;2801;50.972;7.856;2022-08-21T13:04:10;3.13;;;1.23;;
5555;SDS011;2801;50.972;7.856;2022-08-21T13:06:43;3.63;;;1.30;;
5555;SDS011;2801;50.972;7.856;2022-08-21T13:09:15;4.40;;;1.40;;
5555;SDS011;2801;50.972;7.856;2022-08-21T13:11:52;4.63;;;1.38;;
5555;SDS011;2801;50.972;7.856;2022-08-21T13:14:25;3.72;;;1.55;;
5555;SDS011;2801;50.972;7.856;2022-08-21T13:17:10;2.22;;;1.20;;
5555;SDS011;2801;50.972;7.856;2022-08-21T13:22:26;3.05;;;1.33;;
5555;SDS011;2801;50.972;7.856;2022-08-21T13:25:00;2.17;;;1.17;;
5555;SDS011;2801;50.972;7.856;2022-08-21T13:27:32;2.47;;;1.20;;
5555;SDS011;2801;50.972;7.856;2022-08-21T13:30:20;5.30;;;1.38;;
5555;SDS011;2801;50.972;7.856;2022-08-21T13:32:50;3.50;;;1.30;;
5555;SDS011;2801;50.972;7.856;2022-08-21T13:35:35;3.78;;;1.27;;
5555;SDS011;2801;50.972;7.856;2022-08-21T13:38:13;3.42;;;0.90;;
5555;SDS011;2801;50.972;7.856;2022-08-21T13:40:49;3.47;;;1.17;;
5555;SDS011;2801;50.972;7.856;2022-08-21T13:43:45;3.50;;;1.10;;
5555;SDS011;2801;50.972;7.856;2022-08-21T13:46:22;4.43;;;1.30;;
5555;SDS011;2801;50.972;7.856;2022-08-21T13:48:54;3.53;;;1.38;;
5555;SDS011;2801;50.972;7.856;2022-08-21T13:51:22;2.83;;;1.17;;
5555;SDS011;2801;50.972;7.856;2022-08-21T13:53:50;2.78;;;1.10;;
5555;SDS011;2801;50.972;7.856;2022-08-21T13:56:23;2.08;;;1.02;;
5555;SDS011;2801;50.972;7.856;2022-08-21T13:58:59;2.88;;;0.88;;
5555;SDS011;2801;50.972;7.856;2022-08-21T14:01:31;2.03;;;0.90;;
5555;SDS011;2801;50.972;7.856;2022-08-21T14:04:03;2.38;;;0.93;;
5555;SDS011;2801;50.972;7.856;2022-08-21T14:06:45;2.28;;;1.00;;
5555;SDS011;2801;50.972;7.856;2022-08-21T14:09:15;3.05;;;1.27;;
5555;SDS011;2801;50.972;7.856;2022-08-21T14:11:55;1.92;;;1.02;;
5555;SDS011;2801;50.972;7.856;2022-08-21T14:14:26;2.58;;;0.85;;
5555;SDS011;2801;50.972;7.856;2022-08-21T14:17:02;4.05;;;1.10;;
5555;SDS011;2801;50.972;7.856;2022-08-21T14:19:57;2.03;;;1.10;;
5555;SDS011;2801;50.972;7.856;2022-08-21T14:24:59;4.35;;;0.80;;
5555;SDS011;2801;50.972;7.856;2022-08-21T14:27:36;3.15;;;1.02;;
5555;SDS011;2801;50.972;7.856;2022-08-21T14:30:33;3.15;;;1.33;;
5555;SDS011;2801;50.972;7.856;2022-08-21T14:33:04;2.30;;;1.10;;
5555;SDS011;2801;50.972;7.856;2022-08-21T14:35:38;2.80;;;1.30;;
5555;SDS011;2801;50.972;7.856;2022-08-21T14:38:13;3.05;;;1.10;;
5555;SDS011;2801;50.972;7.856;2022-08-21T14:40:46;2.65;;;1.00;;
5555;SDS011;2801;50.972;7.856;2022-08-21T14:43:17;1.73;;;1.00;;
5555;SDS011;2801;50.972;7.856;2022-08-21T14:45:45;3.15;;;1.20;;
5555;SDS011;2801;50.972;7.856;2022-08-21T14:48:13;2.78;;;1.10;;
5555;SDS011;2801;50.972;7.856;2022-08-21T14:50:40;3.70;;;1.10;;
5555;SDS011;2801;50.972;7.856;2022-08-21T14:53:08;2.22;;;0.90;;
5555;SDS011;2801;50.972;7.856;2022-08-21T14:55:37;2.17;;;1.20;;
5555;SDS011;2801;50.972;7.856;2022-08-21T14:58:39;3.67;;;1.20;;
5555;SDS011;2801;50.972;7.856;2022-08-21T15:01:09;2.67;;;0.90;;
5555;SDS011;2801;50.972;7.856;2022-08-21T15:03:40;2.45;;;1.13;;
5555;SDS011;2801;50.972;7.856;2022-08-21T15:06:08;1.48;;;0.90;;
5555;SDS011;2801;50.972;7.856;2022-08-21T15:08:36;3.75;;;1.10;;
5555;SDS011;2801;50.972;7.856;2022-08-21T15:11:04;2.65;;;0.90;;
5555;SDS011;2801;50.972;7.856;2022-08-21T15:13:38;4.68;;;1.17;;
5555;SDS011;2801;50.972;7.856;2022-08-21T15:16:05;2.40;;;0.93;;
5555;SDS011;2801;50.972;7.856;2022-08-21T15:18:37;3.63;;;1.10;;
5555;SDS011;2801;50.972;7.856;2022-08-21T15:21:05;2.08;;;1.13;;
5555;SDS011;2801;50.972;7.856;2022-08-21T15:23:32;2.83;;;1.10;;
5555;SDS011;2801;50.972;7.856;2022-08-21T15:25:59;2.65;;;1.10;;
5555;SDS011;2801;50.972;7.856;2022-08-21T15:28:27;3.00;;;1.13;;
5555;SDS011;2801;50.972;7.856;2022-08-21T15:30:57;3.55;;;0.93;;
5555;SDS011;2801;50.972;7.856;2022-08-21T15:33:27;2.80;;;0.90;;
5555;SDS011;2801;50.972;7.856;2022-08-21T15:35:54;2.95;;;1.23;;
5555;SDS011;2801;50.972;7.856;2022-08-21T15:38:22;3.88;;;1.10;;
5555;SDS011;2801;50.972;7.856;2022-08-21T15:40:49;3.58;;;1.00;;
5555;SDS011;2801;50.972;7.856;2022-08-21T15:43:25;1.73;;;0.80;;
5555;SDS011;2801;50.972;7.856;2022-08-21T15:45:57;2.33;;;0.75;;
5555;SDS011;2801;50.972;7.856;2022-08-21T15:48:25;3.30;;;0.90;;
5555;SDS011;2801;50.972;7.856;2022-08-21T15:50:53;2.40;;;1.13;;
5555;SDS011;2801;50.972;7.856;2022-08-21T15:53:19;1.10;;;0.73;;
5555;SDS011;2801;50.972;7.856;2022-08-21T15:55:46;1.90;;;0.93;;
5555;SDS011;2801;50.972;7.856;2022-08-21T15:58:14;2.80;;;1.00;;
5555;SDS011;2801;50.972;7.856;2022-08-21T16:00:43;3.33;;;1.13;;
5555;SDS011;2801;50.972;7.856;2022-08-21T16:03:14;1.13;;;0.80;;
5555;SDS011;2801;50.972;7.856;2022-08-21T16:05:45;2.78;;;0.95;;
5555;SDS011;2801;50.972;7.856;2022-08-21T16:08:15;2.03;;;1.10;;
5555;SDS011;2801;50.972;7.856;2022-08-21T16:10:43;3.78;;;1.30;;
5555;SDS011;2801;50.972;7.856;2022-08-21T16:13:18;2.00;;;0.90;;
5555;SDS011;2801;50.972;7.856;2022-08-21T16:15:55;1.80;;;0.90;;
5555;SDS011;2801;50.972;7.856;2022-08-21T16:18:22;2.90;;;1.25;;
5555;SDS011;2801;50.972;7.856;2022-08-21T16:20:51;1.77;;;0.80;;
5555;SDS011;2801;50.972;7.856;2022-08-21T16:23:18;1.20;;;0.85;;
5555;SDS011;2801;50.972;7.856;2022-08-21T16:25:45;2.63;;;0.90;;
5555;SDS011;2801;50.972;7.856;2022-08-21T16:28:14;3.22;;;1.00;;
5555;SDS011;2801;50.972;7.856;2022-08-21T16:30:46;2.97;;;1.23;;
5555;SDS011;2801;50.972;7.856;2022-08-21T16:33:22;2.95;;;1.00;;
5555;SDS011;2801;50.972;7.856;2022-08-21T16:35:57;1.85;;;0.80;;
5555;SDS011;2801;50.972;7.856;2022-08-21T16:38:26;1.95;;;0.90;;
5555;SDS011;2801;50.972;7.856;2022-08-21T16:40:54;1.90;;;0.93;;
5555;SDS011;2801;50.972;7.856;2022-08-21T16:43:22;2.17;;;0.77;;
5555;SDS011;2801;50.972;7.856;2022-08-21T16:45:52;3.13;;;1.08;;
5555;SDS011;2801;50.972;7.856;2022-08-21T16:48:22;3.45;;;1.08;;
5555;SDS011;2801;50.972;7.856;2022-08-21T16:50:49;2.22;;;0.90;;
5555;SDS011;2801;50.972;7.856;2022-08-21T16:53:16;1.67;;;0.90;;
5555;SDS011;2801;50.972;7.856;2022-08-21T16:55:44;3.45;;;0.98;;
5555;SDS011;2801;50.972;7.856;2022-08-21T16:58:23;2.38;;;1.00;;
5555;SDS011;2801;50.972;7.856;2022-08-21T17:01:04;3.40;;;1.35;;
5555;SDS011;2801;50.972;7.856;2022-08-21T17:03:36;2.90;;;0.82;;
5555;SDS011;2801;50.972;7.856;2022-08-21T17:06:08;2.00;;;0.52;;
5555;SDS011;2801;50.972;7.856;2022-08-21T17:08:36;1.85;;;0.70;;
5555;SDS011;2801;50.972;7.856;2022-08-21T17:11:10;3.60;;;1.17;;
5555;SDS011;2801;50.972;7.856;2022-08-21T17:14:07;2.10;;;0.70;;
5555;SDS011;2801;50.972;7.856;2022-08-21T17:16:40;2.22;;;0.70;;